SXS3DQ LTAI-EPKK
Flight info
| Callsign | SXS3DQ |
|---|---|
| Flight time | 2h 30m |
| Altitude | 36000 |
| Route | EKNUD UQ26 BKZ DCT IBLAX DCT KOMAN DCT LARMU DCT KENIN DCT KOJOT DCT RAZEC DCT LENOV |
| Aircraft | B38M/M-SDE1FGHILORVWXY/HB1 |
Departure
| Time | 2026-05-06 12:56 |
|---|---|
| Airport | Antalya International Airport (LTAI) |
Arrival
| Time | 2026-05-06 15:26 |
|---|---|
| Airport | Kraków John Paul II International Airport (EPKK) |
| Time | Latitude | Longitude | Altitude | Speed | Heading |
|---|---|---|---|---|---|
| 2026-05-06 12:14 | 36.89578 | 30.79709 | 194 ft | 0 kts | 186° |
| 2026-05-06 12:42 | 36.89584 | 30.79710 | 194 ft | 4 kts | 187° |
| 2026-05-06 12:43 | 36.89611 | 30.79714 | 209 ft | 4 kts | 181° |
| 2026-05-06 12:43 | 36.89638 | 30.79713 | 204 ft | 4 kts | 173° |
| 2026-05-06 12:43 | 36.89658 | 30.79710 | 205 ft | 0 kts | 171° |
| 2026-05-06 12:49 | 36.89657 | 30.79710 | 205 ft | 0 kts | 169° |
| 2026-05-06 12:49 | 36.89651 | 30.79717 | 208 ft | 3 kts | 134° |
| 2026-05-06 12:49 | 36.89637 | 30.79761 | 198 ft | 9 kts | 95° |
| 2026-05-06 12:49 | 36.89631 | 30.79854 | 201 ft | 12 kts | 96° |
| 2026-05-06 12:50 | 36.89622 | 30.79964 | 199 ft | 14 kts | 96° |
| 2026-05-06 12:50 | 36.89610 | 30.80088 | 197 ft | 15 kts | 97° |
| 2026-05-06 12:50 | 36.89596 | 30.80223 | 198 ft | 16 kts | 96° |
| 2026-05-06 12:50 | 36.89586 | 30.80370 | 197 ft | 18 kts | 96° |
| 2026-05-06 12:51 | 36.89572 | 30.80509 | 194 ft | 14 kts | 96° |
| 2026-05-06 12:51 | 36.89561 | 30.80637 | 194 ft | 16 kts | 88° |
| 2026-05-06 12:51 | 36.89644 | 30.80702 | 201 ft | 16 kts | 6° |
| 2026-05-06 12:51 | 36.89759 | 30.80717 | 194 ft | 17 kts | 6° |
| 2026-05-06 12:52 | 36.89883 | 30.80734 | 194 ft | 19 kts | 6° |
| 2026-05-06 12:52 | 36.90018 | 30.80753 | 200 ft | 20 kts | 6° |
| 2026-05-06 12:52 | 36.90162 | 30.80773 | 194 ft | 21 kts | 6° |
| 2026-05-06 12:52 | 36.90315 | 30.80794 | 203 ft | 23 kts | 6° |
| 2026-05-06 12:53 | 36.90479 | 30.80816 | 201 ft | 24 kts | 5° |
| 2026-05-06 12:53 | 36.90652 | 30.80838 | 200 ft | 26 kts | 6° |
| 2026-05-06 12:53 | 36.90833 | 30.80863 | 193 ft | 27 kts | 7° |
| 2026-05-06 12:53 | 36.91011 | 30.80889 | 200 ft | 26 kts | 6° |
| 2026-05-06 12:54 | 36.91134 | 30.80951 | 196 ft | 19 kts | 68° |
| 2026-05-06 12:54 | 36.91124 | 30.81107 | 197 ft | 11 kts | 110° |
| 2026-05-06 12:54 | 36.91074 | 30.81135 | 196 ft | 0 kts | 186° |
| 2026-05-06 12:54 | 36.91071 | 30.81134 | 197 ft | 1 kts | 186° |
| 2026-05-06 12:55 | 36.91046 | 30.81131 | 202 ft | 15 kts | 185° |
| 2026-05-06 12:55 | 36.90668 | 30.81079 | 193 ft | 93 kts | 186° |
| 2026-05-06 12:55 | 36.89800 | 30.80965 | 207 ft | 156 kts | 186° |
| 2026-05-06 12:55 | 36.88622 | 30.80791 | 595 ft | 180 kts | 186° |
| 2026-05-06 12:56 | 36.87371 | 30.80709 | 1519 ft | 174 kts | 173° |
| 2026-05-06 12:56 | 36.86165 | 30.80962 | 2489 ft | 186 kts | 170° |
| 2026-05-06 12:56 | 36.84807 | 30.81249 | 3182 ft | 211 kts | 170° |
| 2026-05-06 12:56 | 36.83282 | 30.81569 | 3938 ft | 224 kts | 170° |
| 2026-05-06 12:57 | 36.81758 | 30.81889 | 5116 ft | 225 kts | 170° |
| 2026-05-06 12:57 | 36.80170 | 30.82237 | 5872 ft | 240 kts | 166° |
| 2026-05-06 12:57 | 36.78562 | 30.83035 | 6440 ft | 259 kts | 153° |
| 2026-05-06 12:57 | 36.76882 | 30.84062 | 6976 ft | 279 kts | 154° |
| 2026-05-06 12:58 | 36.75177 | 30.85348 | 7564 ft | 295 kts | 135° |
| 2026-05-06 12:58 | 36.74077 | 30.87438 | 8612 ft | 289 kts | 108° |
| 2026-05-06 12:58 | 36.73669 | 30.89902 | 9451 ft | 294 kts | 94° |
| 2026-05-06 12:58 | 36.73431 | 30.92459 | 10279 ft | 300 kts | 94° |
| 2026-05-06 12:59 | 36.73197 | 30.95114 | 10770 ft | 318 kts | 94° |
| 2026-05-06 12:59 | 36.72955 | 30.97945 | 11155 ft | 338 kts | 94° |
| 2026-05-06 12:59 | 36.72706 | 31.00941 | 11591 ft | 355 kts | 94° |
| 2026-05-06 12:59 | 36.72530 | 31.04041 | 12155 ft | 363 kts | 84° |
| 2026-05-06 13:00 | 36.73067 | 31.07033 | 12963 ft | 359 kts | 64° |
| 2026-05-06 13:00 | 36.74399 | 31.09655 | 13602 ft | 360 kts | 44° |
| 2026-05-06 13:00 | 36.76368 | 31.11548 | 14288 ft | 358 kts | 25° |
| 2026-05-06 13:00 | 36.78715 | 31.12573 | 14891 ft | 359 kts | 8° |
| 2026-05-06 13:01 | 36.81194 | 31.13062 | 15506 ft | 363 kts | 6° |
| 2026-05-06 13:01 | 36.83711 | 31.13281 | 16107 ft | 364 kts | 353° |
| 2026-05-06 13:01 | 36.86161 | 31.12523 | 16716 ft | 365 kts | 335° |
| 2026-05-06 13:01 | 36.88330 | 31.10870 | 17309 ft | 368 kts | 323° |
| 2026-05-06 13:02 | 36.90400 | 31.08969 | 17910 ft | 372 kts | 322° |
| 2026-05-06 13:02 | 36.92474 | 31.07013 | 18491 ft | 375 kts | 322° |
| 2026-05-06 13:02 | 36.94552 | 31.05025 | 19014 ft | 378 kts | 321° |
| 2026-05-06 13:02 | 36.96636 | 31.03009 | 19558 ft | 380 kts | 321° |
| 2026-05-06 13:03 | 36.98731 | 31.00972 | 20081 ft | 383 kts | 321° |
| 2026-05-06 13:03 | 37.00838 | 30.98917 | 20607 ft | 386 kts | 321° |
| 2026-05-06 13:03 | 37.02958 | 30.96846 | 21143 ft | 388 kts | 321° |
| 2026-05-06 13:03 | 37.05094 | 30.94760 | 21666 ft | 390 kts | 321° |
| 2026-05-06 13:04 | 37.07232 | 30.92667 | 22284 ft | 390 kts | 321° |
| 2026-05-06 13:04 | 37.09376 | 30.90567 | 22790 ft | 393 kts | 321° |
| 2026-05-06 13:04 | 37.11534 | 30.88452 | 23271 ft | 395 kts | 321° |
| 2026-05-06 13:04 | 37.13708 | 30.86320 | 23732 ft | 398 kts | 321° |
| 2026-05-06 13:05 | 37.15891 | 30.84176 | 24139 ft | 400 kts | 321° |
| 2026-05-06 13:05 | 37.18086 | 30.82017 | 24582 ft | 402 kts | 321° |
| 2026-05-06 13:05 | 37.20290 | 30.79850 | 24991 ft | 404 kts | 321° |
| 2026-05-06 13:05 | 37.22506 | 30.77668 | 25412 ft | 405 kts | 321° |
| 2026-05-06 13:06 | 37.24727 | 30.75480 | 25852 ft | 407 kts | 321° |
| 2026-05-06 13:06 | 37.27053 | 30.73443 | 26231 ft | 410 kts | 332° |
| 2026-05-06 13:06 | 37.29753 | 30.72275 | 26661 ft | 414 kts | 346° |
| 2026-05-06 13:06 | 37.32604 | 30.71660 | 27018 ft | 417 kts | 348° |
| 2026-05-06 13:07 | 37.35477 | 30.71070 | 27366 ft | 420 kts | 348° |
| 2026-05-06 13:07 | 37.38368 | 30.70501 | 27764 ft | 421 kts | 348° |
| 2026-05-06 13:07 | 37.41298 | 30.70162 | 28079 ft | 425 kts | 354° |
| 2026-05-06 13:07 | 37.44218 | 30.69985 | 28458 ft | 426 kts | 353° |
| 2026-05-06 13:08 | 37.47186 | 30.69778 | 28721 ft | 429 kts | 353° |
| 2026-05-06 13:08 | 37.50168 | 30.69556 | 29062 ft | 430 kts | 353° |
| 2026-05-06 13:08 | 37.53160 | 30.69328 | 29409 ft | 432 kts | 353° |
| 2026-05-06 13:08 | 37.56166 | 30.69097 | 29705 ft | 434 kts | 353° |
| 2026-05-06 13:09 | 37.59193 | 30.68902 | 30010 ft | 436 kts | 354° |
| 2026-05-06 13:09 | 37.62218 | 30.68717 | 30423 ft | 435 kts | 354° |
| 2026-05-06 13:09 | 37.65239 | 30.68528 | 30789 ft | 434 kts | 354° |
| 2026-05-06 13:09 | 37.68257 | 30.68339 | 31125 ft | 434 kts | 354° |
| 2026-05-06 13:10 | 37.71271 | 30.68149 | 31475 ft | 433 kts | 354° |
| 2026-05-06 13:10 | 37.74282 | 30.67959 | 31828 ft | 433 kts | 354° |
| 2026-05-06 13:10 | 37.77287 | 30.67770 | 32184 ft | 432 kts | 354° |
| 2026-05-06 13:10 | 37.80294 | 30.67580 | 32537 ft | 432 kts | 354° |
| 2026-05-06 13:11 | 37.83288 | 30.67391 | 32873 ft | 431 kts | 354° |
| 2026-05-06 13:11 | 37.86287 | 30.67210 | 33205 ft | 432 kts | 355° |
| 2026-05-06 13:11 | 37.89284 | 30.67610 | 33532 ft | 438 kts | 11° |
| 2026-05-06 13:11 | 37.92149 | 30.68987 | 33869 ft | 443 kts | 19° |
| 2026-05-06 13:12 | 37.94938 | 30.70543 | 34125 ft | 444 kts | 19° |
| 2026-05-06 13:12 | 37.97749 | 30.72141 | 34420 ft | 443 kts | 20° |
| 2026-05-06 13:12 | 38.00553 | 30.73762 | 34669 ft | 443 kts | 20° |
| 2026-05-06 13:12 | 38.03354 | 30.75397 | 34916 ft | 444 kts | 20° |
| 2026-05-06 13:13 | 38.06157 | 30.77040 | 35149 ft | 444 kts | 20° |
| 2026-05-06 13:13 | 38.08969 | 30.78690 | 35353 ft | 444 kts | 20° |
| 2026-05-06 13:13 | 38.11842 | 30.80053 | 35554 ft | 437 kts | 7° |
| 2026-05-06 13:13 | 38.14823 | 30.80362 | 35821 ft | 428 kts | 353° |
| 2026-05-06 13:14 | 38.17794 | 30.80035 | 35979 ft | 428 kts | 351° |
| 2026-05-06 13:14 | 38.20758 | 30.79644 | 36093 ft | 429 kts | 350° |
| 2026-05-06 13:14 | 38.23728 | 30.79203 | 36096 ft | 429 kts | 350° |
| 2026-05-06 13:15 | 38.29643 | 30.78262 | 36096 ft | 428 kts | 349° |
| 2026-05-06 13:15 | 38.34553 | 30.77456 | 36105 ft | 428 kts | 349° |
| 2026-05-06 13:16 | 38.40464 | 30.76478 | 36087 ft | 428 kts | 349° |
| 2026-05-06 13:16 | 38.46373 | 30.75499 | 36093 ft | 428 kts | 349° |
| 2026-05-06 13:17 | 38.52285 | 30.74518 | 36102 ft | 428 kts | 349° |
| 2026-05-06 13:17 | 38.58197 | 30.73536 | 36094 ft | 428 kts | 349° |
| 2026-05-06 13:18 | 38.64111 | 30.72551 | 36093 ft | 429 kts | 349° |
| 2026-05-06 13:18 | 38.70023 | 30.71565 | 36091 ft | 428 kts | 349° |
| 2026-05-06 13:19 | 38.75936 | 30.70578 | 36100 ft | 429 kts | 349° |
| 2026-05-06 13:19 | 38.81850 | 30.69588 | 36093 ft | 429 kts | 349° |
| 2026-05-06 13:20 | 38.87457 | 30.67410 | 36108 ft | 420 kts | 332° |
| 2026-05-06 13:20 | 38.92742 | 30.64089 | 36089 ft | 423 kts | 332° |
| 2026-05-06 13:21 | 38.98001 | 30.60697 | 36098 ft | 423 kts | 332° |
| 2026-05-06 13:21 | 39.03259 | 30.57272 | 36083 ft | 424 kts | 332° |
| 2026-05-06 13:22 | 39.08514 | 30.53839 | 36079 ft | 424 kts | 332° |
| 2026-05-06 13:22 | 39.13772 | 30.50400 | 36074 ft | 424 kts | 331° |
| 2026-05-06 13:23 | 39.19029 | 30.46954 | 36070 ft | 424 kts | 331° |
| 2026-05-06 13:23 | 39.24250 | 30.43527 | 36075 ft | 424 kts | 332° |
| 2026-05-06 13:24 | 39.29510 | 30.40068 | 36067 ft | 424 kts | 332° |
| 2026-05-06 13:24 | 39.34763 | 30.36608 | 36066 ft | 423 kts | 332° |
| 2026-05-06 13:25 | 39.40000 | 30.33152 | 36066 ft | 423 kts | 332° |
| 2026-05-06 13:25 | 39.45239 | 30.29690 | 36079 ft | 423 kts | 332° |
| 2026-05-06 13:26 | 39.50523 | 30.26335 | 36060 ft | 424 kts | 337° |
| 2026-05-06 13:26 | 39.56003 | 30.23490 | 36059 ft | 424 kts | 336° |
| 2026-05-06 13:27 | 39.61461 | 30.20573 | 36070 ft | 424 kts | 336° |
| 2026-05-06 13:27 | 39.66910 | 30.17643 | 36070 ft | 424 kts | 336° |
| 2026-05-06 13:28 | 39.72367 | 30.14702 | 36070 ft | 425 kts | 336° |
| 2026-05-06 13:28 | 39.77827 | 30.11754 | 36071 ft | 425 kts | 336° |
| 2026-05-06 13:29 | 39.83282 | 30.08804 | 36068 ft | 424 kts | 336° |
| 2026-05-06 13:29 | 39.88716 | 30.05860 | 36081 ft | 423 kts | 336° |
| 2026-05-06 13:30 | 39.94152 | 30.02911 | 36071 ft | 423 kts | 336° |
| 2026-05-06 13:30 | 39.99593 | 29.99971 | 36073 ft | 423 kts | 336° |
| 2026-05-06 13:31 | 40.05032 | 29.97030 | 36076 ft | 423 kts | 336° |
| 2026-05-06 13:31 | 40.10472 | 29.94084 | 36061 ft | 423 kts | 336° |
| 2026-05-06 13:32 | 40.15913 | 29.91132 | 36065 ft | 424 kts | 336° |
| 2026-05-06 13:32 | 40.21362 | 29.88171 | 36062 ft | 424 kts | 336° |
| 2026-05-06 13:33 | 40.26809 | 29.85206 | 36057 ft | 424 kts | 336° |
| 2026-05-06 13:33 | 40.32256 | 29.82235 | 36040 ft | 424 kts | 336° |
| 2026-05-06 13:34 | 40.37690 | 29.79267 | 36046 ft | 423 kts | 336° |
| 2026-05-06 13:34 | 40.43084 | 29.76314 | 36053 ft | 423 kts | 336° |
| 2026-05-06 13:35 | 40.48517 | 29.73336 | 36062 ft | 423 kts | 336° |
| 2026-05-06 13:35 | 40.53956 | 29.70349 | 36073 ft | 423 kts | 336° |
| 2026-05-06 13:36 | 40.59392 | 29.67359 | 36070 ft | 424 kts | 336° |
| 2026-05-06 13:36 | 40.64864 | 29.64329 | 36067 ft | 423 kts | 334° |
| 2026-05-06 13:36 | 40.67336 | 29.62269 | 36064 ft | 421 kts | 321° |
| 2026-05-06 13:37 | 40.69603 | 29.59897 | 36058 ft | 423 kts | 322° |
| 2026-05-06 13:37 | 40.74229 | 29.55115 | 36078 ft | 423 kts | 322° |
| 2026-05-06 13:38 | 40.78860 | 29.50245 | 36068 ft | 422 kts | 322° |
| 2026-05-06 13:38 | 40.83408 | 29.45440 | 36071 ft | 422 kts | 321° |
| 2026-05-06 13:39 | 40.87984 | 29.40599 | 36073 ft | 422 kts | 321° |
| 2026-05-06 13:39 | 40.92560 | 29.35746 | 36072 ft | 421 kts | 321° |
| 2026-05-06 13:40 | 40.97129 | 29.30893 | 36074 ft | 421 kts | 321° |
| 2026-05-06 13:40 | 41.01695 | 29.26034 | 36078 ft | 421 kts | 321° |
| 2026-05-06 13:41 | 41.06258 | 29.21170 | 36071 ft | 421 kts | 321° |
| 2026-05-06 13:41 | 41.10813 | 29.16305 | 36076 ft | 421 kts | 321° |
| 2026-05-06 13:42 | 41.15481 | 29.11631 | 36087 ft | 421 kts | 324° |
| 2026-05-06 13:42 | 41.20181 | 29.07002 | 36080 ft | 420 kts | 323° |
| 2026-05-06 13:43 | 41.24872 | 29.02362 | 36067 ft | 420 kts | 323° |
| 2026-05-06 13:43 | 41.29550 | 28.97726 | 36076 ft | 419 kts | 323° |
| 2026-05-06 13:44 | 41.34148 | 28.93160 | 36081 ft | 419 kts | 323° |
| 2026-05-06 13:44 | 41.38815 | 28.88518 | 36079 ft | 419 kts | 323° |
| 2026-05-06 13:45 | 41.43485 | 28.83865 | 36082 ft | 420 kts | 323° |
| 2026-05-06 13:45 | 41.50491 | 28.76866 | 36092 ft | 419 kts | 323° |
| 2026-05-06 13:46 | 41.55153 | 28.72198 | 36092 ft | 419 kts | 323° |
| 2026-05-06 13:46 | 41.59812 | 28.67526 | 36093 ft | 419 kts | 323° |
| 2026-05-06 13:47 | 41.64467 | 28.62849 | 36091 ft | 418 kts | 323° |
| 2026-05-06 13:47 | 41.69108 | 28.58176 | 36097 ft | 418 kts | 323° |
| 2026-05-06 13:48 | 41.73728 | 28.53516 | 36089 ft | 419 kts | 323° |
| 2026-05-06 13:48 | 41.78410 | 28.48785 | 36091 ft | 419 kts | 323° |
| 2026-05-06 13:49 | 41.83058 | 28.44080 | 36086 ft | 418 kts | 323° |
| 2026-05-06 13:49 | 41.87662 | 28.39410 | 36092 ft | 417 kts | 323° |
| 2026-05-06 13:50 | 41.92294 | 28.34705 | 36090 ft | 417 kts | 323° |
| 2026-05-06 13:50 | 41.96932 | 28.29985 | 36094 ft | 419 kts | 323° |
| 2026-05-06 13:51 | 42.01619 | 28.25322 | 36091 ft | 419 kts | 324° |
| 2026-05-06 13:51 | 42.06309 | 28.20658 | 36089 ft | 419 kts | 324° |
| 2026-05-06 13:52 | 42.10995 | 28.15988 | 36086 ft | 419 kts | 324° |
| 2026-05-06 13:52 | 42.15678 | 28.11312 | 36086 ft | 419 kts | 324° |
| 2026-05-06 13:53 | 42.20357 | 28.06631 | 36098 ft | 418 kts | 324° |
| 2026-05-06 13:53 | 42.25038 | 28.01939 | 36085 ft | 420 kts | 324° |
| 2026-05-06 13:54 | 42.29724 | 27.97233 | 36080 ft | 420 kts | 324° |
| 2026-05-06 13:54 | 42.34405 | 27.92524 | 36080 ft | 420 kts | 324° |
| 2026-05-06 13:55 | 42.39082 | 27.87809 | 36076 ft | 418 kts | 324° |
| 2026-05-06 13:55 | 42.43743 | 27.83102 | 36079 ft | 418 kts | 324° |
| 2026-05-06 13:56 | 42.48406 | 27.78383 | 36080 ft | 419 kts | 324° |
| 2026-05-06 13:56 | 42.53079 | 27.73646 | 36077 ft | 420 kts | 324° |
| 2026-05-06 13:57 | 42.57747 | 27.68904 | 36069 ft | 420 kts | 324° |
| 2026-05-06 13:57 | 42.62421 | 27.64148 | 36074 ft | 420 kts | 324° |
| 2026-05-06 13:58 | 42.67061 | 27.59417 | 36074 ft | 420 kts | 324° |
| 2026-05-06 13:58 | 42.71729 | 27.54647 | 36073 ft | 420 kts | 324° |
| 2026-05-06 13:59 | 42.76397 | 27.49870 | 36070 ft | 420 kts | 324° |
| 2026-05-06 13:59 | 42.81058 | 27.45089 | 36059 ft | 419 kts | 324° |
| 2026-05-06 14:00 | 42.85718 | 27.40301 | 36065 ft | 419 kts | 324° |
| 2026-05-06 14:00 | 42.90361 | 27.35521 | 36053 ft | 419 kts | 324° |
| 2026-05-06 14:01 | 42.95014 | 27.30720 | 36028 ft | 419 kts | 323° |
| 2026-05-06 14:01 | 42.99672 | 27.25907 | 36046 ft | 420 kts | 323° |
| 2026-05-06 14:02 | 43.03549 | 27.21893 | 36036 ft | 421 kts | 323° |
| 2026-05-06 14:02 | 43.08221 | 27.17047 | 36035 ft | 422 kts | 323° |
| 2026-05-06 14:03 | 43.12890 | 27.12194 | 36028 ft | 422 kts | 323° |
| 2026-05-06 14:03 | 43.17558 | 27.07334 | 36025 ft | 422 kts | 323° |
| 2026-05-06 14:04 | 43.22231 | 27.02457 | 36023 ft | 422 kts | 323° |
| 2026-05-06 14:04 | 43.26887 | 26.97590 | 36020 ft | 422 kts | 323° |
| 2026-05-06 14:05 | 43.31555 | 26.92701 | 36024 ft | 423 kts | 323° |
| 2026-05-06 14:05 | 43.36223 | 26.87801 | 36015 ft | 422 kts | 323° |
| 2026-05-06 14:06 | 43.40881 | 26.82902 | 36016 ft | 421 kts | 323° |
| 2026-05-06 14:06 | 43.45535 | 26.77998 | 36015 ft | 421 kts | 323° |
| 2026-05-06 14:07 | 43.50190 | 26.73083 | 36012 ft | 421 kts | 323° |
| 2026-05-06 14:07 | 43.54805 | 26.68200 | 36011 ft | 420 kts | 323° |
| 2026-05-06 14:08 | 43.59432 | 26.63295 | 36004 ft | 419 kts | 323° |
| 2026-05-06 14:08 | 43.64055 | 26.58385 | 35997 ft | 419 kts | 323° |
| 2026-05-06 14:09 | 43.68676 | 26.53467 | 36000 ft | 419 kts | 323° |
| 2026-05-06 14:09 | 43.73291 | 26.48545 | 35983 ft | 419 kts | 323° |
| 2026-05-06 14:10 | 43.77873 | 26.43649 | 35992 ft | 414 kts | 323° |
| 2026-05-06 14:10 | 43.82436 | 26.38766 | 36017 ft | 415 kts | 323° |
| 2026-05-06 14:11 | 43.87019 | 26.33852 | 36002 ft | 418 kts | 323° |
| 2026-05-06 14:11 | 43.91617 | 26.28911 | 35994 ft | 418 kts | 323° |
| 2026-05-06 14:12 | 43.96213 | 26.23963 | 35990 ft | 418 kts | 323° |
| 2026-05-06 14:12 | 44.01026 | 26.19471 | 36001 ft | 417 kts | 328° |
| 2026-05-06 14:13 | 44.05952 | 26.15185 | 35994 ft | 418 kts | 328° |
| 2026-05-06 14:13 | 44.10864 | 26.10853 | 36001 ft | 418 kts | 328° |
| 2026-05-06 14:14 | 44.15786 | 26.06496 | 35996 ft | 419 kts | 327° |
| 2026-05-06 14:14 | 44.20684 | 26.02152 | 35995 ft | 417 kts | 327° |
| 2026-05-06 14:15 | 44.25578 | 25.97802 | 35999 ft | 417 kts | 327° |
| 2026-05-06 14:15 | 44.30466 | 25.93450 | 35996 ft | 417 kts | 327° |
| 2026-05-06 14:16 | 44.35353 | 25.89089 | 35980 ft | 417 kts | 327° |
| 2026-05-06 14:16 | 44.40231 | 25.84727 | 35995 ft | 416 kts | 327° |
| 2026-05-06 14:17 | 44.45110 | 25.80356 | 35996 ft | 416 kts | 327° |
| 2026-05-06 14:17 | 44.49985 | 25.75979 | 36008 ft | 416 kts | 327° |
| 2026-05-06 14:18 | 44.54860 | 25.71595 | 36006 ft | 416 kts | 327° |
| 2026-05-06 14:18 | 44.59731 | 25.67203 | 35995 ft | 416 kts | 327° |
| 2026-05-06 14:19 | 44.64591 | 25.62815 | 36006 ft | 416 kts | 327° |
| 2026-05-06 14:19 | 44.69462 | 25.58406 | 36003 ft | 417 kts | 327° |
| 2026-05-06 14:20 | 44.74330 | 25.53992 | 36002 ft | 417 kts | 327° |
| 2026-05-06 14:20 | 44.79203 | 25.49564 | 36001 ft | 417 kts | 327° |
| 2026-05-06 14:21 | 44.84035 | 25.45164 | 35997 ft | 416 kts | 327° |
| 2026-05-06 14:21 | 44.88894 | 25.40730 | 35998 ft | 416 kts | 327° |
| 2026-05-06 14:22 | 44.93758 | 25.36284 | 36008 ft | 417 kts | 326° |
| 2026-05-06 14:22 | 44.98628 | 25.31822 | 36006 ft | 417 kts | 326° |
| 2026-05-06 14:23 | 45.03498 | 25.27351 | 35993 ft | 417 kts | 326° |
| 2026-05-06 14:23 | 45.08365 | 25.22874 | 36005 ft | 417 kts | 326° |
| 2026-05-06 14:24 | 45.13227 | 25.18392 | 36007 ft | 417 kts | 326° |
| 2026-05-06 14:24 | 45.18097 | 25.13894 | 36022 ft | 418 kts | 326° |
| 2026-05-06 14:25 | 45.22969 | 25.09384 | 36012 ft | 418 kts | 326° |
| 2026-05-06 14:25 | 45.27842 | 25.04863 | 36006 ft | 419 kts | 326° |
| 2026-05-06 14:26 | 45.32718 | 25.00332 | 36012 ft | 419 kts | 326° |
| 2026-05-06 14:26 | 45.37597 | 24.95787 | 36010 ft | 419 kts | 326° |
| 2026-05-06 14:27 | 45.42472 | 24.91236 | 36009 ft | 419 kts | 326° |
| 2026-05-06 14:27 | 45.47350 | 24.86674 | 36010 ft | 420 kts | 326° |
| 2026-05-06 14:28 | 45.52238 | 24.82092 | 35997 ft | 421 kts | 325° |
| 2026-05-06 14:28 | 45.57128 | 24.77499 | 35986 ft | 422 kts | 325° |
| 2026-05-06 14:29 | 45.62026 | 24.72888 | 35979 ft | 422 kts | 325° |
| 2026-05-06 14:29 | 45.66926 | 24.68266 | 35964 ft | 422 kts | 325° |
| 2026-05-06 14:30 | 45.71786 | 24.63672 | 35964 ft | 421 kts | 325° |
| 2026-05-06 14:30 | 45.76688 | 24.59028 | 35951 ft | 423 kts | 325° |
| 2026-05-06 14:31 | 45.81600 | 24.54365 | 35947 ft | 424 kts | 325° |
| 2026-05-06 14:31 | 45.86512 | 24.49692 | 35938 ft | 424 kts | 325° |
| 2026-05-06 14:32 | 45.91420 | 24.45012 | 35932 ft | 424 kts | 325° |
| 2026-05-06 14:32 | 45.96329 | 24.40320 | 35930 ft | 424 kts | 324° |
| 2026-05-06 14:33 | 46.01249 | 24.35609 | 35938 ft | 426 kts | 324° |
| 2026-05-06 14:33 | 46.06173 | 24.30884 | 35932 ft | 426 kts | 324° |
| 2026-05-06 14:34 | 46.11100 | 24.26145 | 35929 ft | 426 kts | 324° |
| 2026-05-06 14:34 | 46.16020 | 24.21403 | 35920 ft | 425 kts | 324° |
| 2026-05-06 14:35 | 46.20939 | 24.16651 | 35921 ft | 426 kts | 324° |
| 2026-05-06 14:35 | 46.25856 | 24.11891 | 35919 ft | 426 kts | 324° |
| 2026-05-06 14:36 | 46.30765 | 24.07127 | 35920 ft | 425 kts | 324° |
| 2026-05-06 14:36 | 46.35647 | 24.02382 | 35914 ft | 425 kts | 324° |
| 2026-05-06 14:37 | 46.40558 | 23.97595 | 35916 ft | 426 kts | 324° |
| 2026-05-06 14:37 | 46.45471 | 23.92796 | 35913 ft | 427 kts | 324° |
| 2026-05-06 14:38 | 46.50403 | 23.87969 | 35917 ft | 427 kts | 324° |
| 2026-05-06 14:38 | 46.55329 | 23.83138 | 35922 ft | 427 kts | 324° |
| 2026-05-06 14:39 | 46.60253 | 23.78295 | 35922 ft | 427 kts | 324° |
| 2026-05-06 14:39 | 46.65179 | 23.73442 | 35908 ft | 427 kts | 323° |
| 2026-05-06 14:40 | 46.70110 | 23.68571 | 35917 ft | 429 kts | 323° |
| 2026-05-06 14:40 | 46.75049 | 23.63682 | 35914 ft | 429 kts | 323° |
| 2026-05-06 14:41 | 46.79990 | 23.58780 | 35909 ft | 429 kts | 323° |
| 2026-05-06 14:41 | 46.84924 | 23.53875 | 35917 ft | 429 kts | 323° |
| 2026-05-06 14:42 | 46.89865 | 23.48950 | 35915 ft | 430 kts | 323° |
| 2026-05-06 14:42 | 46.94804 | 23.44019 | 35914 ft | 430 kts | 323° |
| 2026-05-06 14:43 | 46.99750 | 23.39070 | 35921 ft | 430 kts | 323° |
| 2026-05-06 14:43 | 47.04693 | 23.34113 | 35915 ft | 430 kts | 323° |
| 2026-05-06 14:44 | 47.09630 | 23.29151 | 35925 ft | 430 kts | 323° |
| 2026-05-06 14:45 | 47.17041 | 23.21680 | 35923 ft | 432 kts | 322° |
| 2026-05-06 14:45 | 47.21960 | 23.16709 | 35929 ft | 432 kts | 322° |
| 2026-05-06 14:46 | 47.26866 | 23.11600 | 35923 ft | 432 kts | 321° |
| 2026-05-06 14:46 | 47.31737 | 23.06417 | 35924 ft | 432 kts | 321° |
| 2026-05-06 14:47 | 47.36611 | 23.01236 | 35942 ft | 432 kts | 321° |
| 2026-05-06 14:47 | 47.41487 | 22.96044 | 35936 ft | 433 kts | 321° |
| 2026-05-06 14:48 | 47.46373 | 22.90826 | 35932 ft | 434 kts | 321° |
| 2026-05-06 14:48 | 47.51270 | 22.85586 | 35935 ft | 434 kts | 321° |
| 2026-05-06 14:49 | 47.56164 | 22.80336 | 35937 ft | 434 kts | 321° |
| 2026-05-06 14:49 | 47.61053 | 22.75080 | 35946 ft | 434 kts | 321° |
| 2026-05-06 14:50 | 47.65938 | 22.69816 | 35937 ft | 435 kts | 321° |
| 2026-05-06 14:50 | 47.70830 | 22.64532 | 35936 ft | 435 kts | 321° |
| 2026-05-06 14:51 | 47.74900 | 22.60125 | 35933 ft | 436 kts | 321° |
| 2026-05-06 14:51 | 47.79799 | 22.54810 | 35929 ft | 436 kts | 321° |
| 2026-05-06 14:52 | 47.84688 | 22.49492 | 35928 ft | 436 kts | 320° |
| 2026-05-06 14:52 | 47.89587 | 22.44152 | 35917 ft | 436 kts | 320° |
| 2026-05-06 14:53 | 47.94482 | 22.38802 | 35916 ft | 436 kts | 320° |
| 2026-05-06 14:53 | 47.99377 | 22.33442 | 35922 ft | 436 kts | 320° |
| 2026-05-06 14:54 | 48.04260 | 22.28079 | 35911 ft | 436 kts | 320° |
| 2026-05-06 14:54 | 48.09147 | 22.22698 | 35921 ft | 437 kts | 320° |
| 2026-05-06 14:55 | 48.14036 | 22.17306 | 35905 ft | 436 kts | 320° |
| 2026-05-06 14:55 | 48.18921 | 22.11903 | 35903 ft | 437 kts | 320° |
| 2026-05-06 14:56 | 48.23803 | 22.06490 | 35903 ft | 437 kts | 320° |
| 2026-05-06 14:56 | 48.28684 | 22.01067 | 35907 ft | 436 kts | 320° |
| 2026-05-06 14:57 | 48.33555 | 21.95642 | 35910 ft | 436 kts | 320° |
| 2026-05-06 14:57 | 48.38277 | 21.89946 | 35911 ft | 435 kts | 316° |
| 2026-05-06 14:58 | 48.42900 | 21.84079 | 35903 ft | 435 kts | 316° |
| 2026-05-06 14:58 | 48.47540 | 21.78221 | 35895 ft | 435 kts | 316° |
| 2026-05-06 14:59 | 48.52179 | 21.72353 | 35899 ft | 435 kts | 316° |
| 2026-05-06 14:59 | 48.56814 | 21.66477 | 35900 ft | 435 kts | 316° |
| 2026-05-06 15:00 | 48.61413 | 21.60632 | 35891 ft | 435 kts | 316° |
| 2026-05-06 15:00 | 48.66041 | 21.54735 | 35903 ft | 435 kts | 316° |
| 2026-05-06 15:01 | 48.70664 | 21.48830 | 35909 ft | 435 kts | 316° |
| 2026-05-06 15:01 | 48.75282 | 21.42916 | 35901 ft | 435 kts | 316° |
| 2026-05-06 15:02 | 48.79901 | 21.36986 | 35905 ft | 435 kts | 316° |
| 2026-05-06 15:02 | 48.84501 | 21.31067 | 35513 ft | 432 kts | 316° |
| 2026-05-06 15:02 | 48.86793 | 21.28113 | 34847 ft | 432 kts | 316° |
| 2026-05-06 15:03 | 48.89085 | 21.25153 | 34203 ft | 432 kts | 316° |
| 2026-05-06 15:03 | 48.91379 | 21.22190 | 33426 ft | 434 kts | 316° |
| 2026-05-06 15:03 | 48.93685 | 21.19209 | 32583 ft | 436 kts | 316° |
| 2026-05-06 15:03 | 48.96028 | 21.16271 | 31797 ft | 439 kts | 322° |
| 2026-05-06 15:04 | 48.98761 | 21.14116 | 30962 ft | 448 kts | 338° |
| 2026-05-06 15:04 | 49.01766 | 21.12852 | 30250 ft | 450 kts | 342° |
| 2026-05-06 15:04 | 49.04783 | 21.11668 | 29657 ft | 445 kts | 342° |
| 2026-05-06 15:04 | 49.07806 | 21.10518 | 29018 ft | 450 kts | 342° |
| 2026-05-06 15:05 | 49.10854 | 21.09383 | 28396 ft | 453 kts | 343° |
| 2026-05-06 15:05 | 49.13912 | 21.08262 | 27717 ft | 450 kts | 343° |
| 2026-05-06 15:05 | 49.16940 | 21.07156 | 27173 ft | 445 kts | 343° |
| 2026-05-06 15:05 | 49.19942 | 21.06056 | 26578 ft | 442 kts | 343° |
| 2026-05-06 15:06 | 49.22924 | 21.04964 | 25988 ft | 440 kts | 343° |
| 2026-05-06 15:06 | 49.25881 | 21.03880 | 25430 ft | 437 kts | 343° |
| 2026-05-06 15:06 | 49.28827 | 21.02798 | 24911 ft | 434 kts | 343° |
| 2026-05-06 15:06 | 49.31701 | 21.01452 | 24309 ft | 429 kts | 332° |
| 2026-05-06 15:07 | 49.34174 | 20.99038 | 23787 ft | 419 kts | 315° |
| 2026-05-06 15:07 | 49.36197 | 20.95891 | 23318 ft | 412 kts | 309° |
| 2026-05-06 15:07 | 49.38115 | 20.92640 | 22703 ft | 410 kts | 308° |
| 2026-05-06 15:07 | 49.39986 | 20.89345 | 22132 ft | 408 kts | 307° |
| 2026-05-06 15:08 | 49.41826 | 20.86049 | 21590 ft | 405 kts | 307° |
| 2026-05-06 15:08 | 49.43644 | 20.82751 | 21050 ft | 403 kts | 307° |
| 2026-05-06 15:08 | 49.45438 | 20.79473 | 20511 ft | 401 kts | 306° |
| 2026-05-06 15:08 | 49.47203 | 20.76239 | 19994 ft | 399 kts | 306° |
| 2026-05-06 15:09 | 49.48980 | 20.72975 | 19484 ft | 397 kts | 306° |
| 2026-05-06 15:09 | 49.50749 | 20.69720 | 18964 ft | 396 kts | 306° |
| 2026-05-06 15:09 | 49.52508 | 20.66481 | 18469 ft | 394 kts | 306° |
| 2026-05-06 15:09 | 49.54259 | 20.63252 | 17930 ft | 393 kts | 306° |
| 2026-05-06 15:10 | 49.56003 | 20.60035 | 17404 ft | 390 kts | 306° |
| 2026-05-06 15:10 | 49.57731 | 20.56840 | 16877 ft | 387 kts | 306° |
| 2026-05-06 15:10 | 49.59450 | 20.53658 | 16410 ft | 384 kts | 307° |
| 2026-05-06 15:10 | 49.61147 | 20.50512 | 15962 ft | 380 kts | 307° |
| 2026-05-06 15:11 | 49.62831 | 20.47388 | 15497 ft | 377 kts | 307° |
| 2026-05-06 15:11 | 49.64500 | 20.44287 | 15031 ft | 375 kts | 307° |
| 2026-05-06 15:11 | 49.66159 | 20.41201 | 14546 ft | 373 kts | 307° |
| 2026-05-06 15:11 | 49.67808 | 20.38130 | 14097 ft | 370 kts | 307° |
| 2026-05-06 15:12 | 49.69448 | 20.35072 | 13638 ft | 368 kts | 307° |
| 2026-05-06 15:12 | 49.71074 | 20.32035 | 13115 ft | 364 kts | 307° |
| 2026-05-06 15:12 | 49.72664 | 20.29064 | 12658 ft | 354 kts | 307° |
| 2026-05-06 15:12 | 49.74212 | 20.26167 | 12232 ft | 345 kts | 306° |
| 2026-05-06 15:13 | 49.75722 | 20.23341 | 11782 ft | 337 kts | 306° |
| 2026-05-06 15:13 | 49.77189 | 20.20592 | 11371 ft | 329 kts | 306° |
| 2026-05-06 15:13 | 49.78692 | 20.17971 | 10955 ft | 325 kts | 315° |
| 2026-05-06 15:13 | 49.80480 | 20.15859 | 10538 ft | 321 kts | 320° |
| 2026-05-06 15:14 | 49.82253 | 20.13815 | 10149 ft | 315 kts | 320° |
| 2026-05-06 15:14 | 49.83985 | 20.11799 | 9767 ft | 308 kts | 320° |
| 2026-05-06 15:14 | 49.85676 | 20.09817 | 9348 ft | 302 kts | 320° |
| 2026-05-06 15:14 | 49.87330 | 20.07873 | 8963 ft | 294 kts | 319° |
| 2026-05-06 15:15 | 49.88941 | 20.05976 | 8586 ft | 287 kts | 319° |
| 2026-05-06 15:15 | 49.90508 | 20.04129 | 8242 ft | 280 kts | 319° |
| 2026-05-06 15:15 | 49.92067 | 20.02437 | 7930 ft | 275 kts | 331° |
| 2026-05-06 15:15 | 49.93881 | 20.01649 | 7707 ft | 266 kts | 347° |
| 2026-05-06 15:16 | 49.95661 | 20.01109 | 7588 ft | 259 kts | 346° |
| 2026-05-06 15:16 | 49.97433 | 20.00566 | 7494 ft | 260 kts | 346° |
| 2026-05-06 15:16 | 49.99231 | 20.00384 | 7318 ft | 262 kts | 8° |
| 2026-05-06 15:16 | 50.00891 | 20.01483 | 7109 ft | 262 kts | 39° |
| 2026-05-06 15:17 | 50.02026 | 20.03655 | 6955 ft | 260 kts | 67° |
| 2026-05-06 15:17 | 50.02538 | 20.06330 | 6840 ft | 259 kts | 79° |
| 2026-05-06 15:17 | 50.02936 | 20.09066 | 6701 ft | 260 kts | 79° |
| 2026-05-06 15:17 | 50.03325 | 20.11807 | 6543 ft | 259 kts | 80° |
| 2026-05-06 15:18 | 50.03708 | 20.14547 | 6353 ft | 260 kts | 80° |
| 2026-05-06 15:18 | 50.04085 | 20.17289 | 6173 ft | 259 kts | 79° |
| 2026-05-06 15:18 | 50.04536 | 20.19986 | 5983 ft | 258 kts | 66° |
| 2026-05-06 15:18 | 50.05624 | 20.22155 | 5782 ft | 255 kts | 34° |
| 2026-05-06 15:19 | 50.07223 | 20.23212 | 5627 ft | 250 kts | 4° |
| 2026-05-06 15:19 | 50.08942 | 20.23115 | 5520 ft | 248 kts | 349° |
| 2026-05-06 15:19 | 50.10641 | 20.22728 | 5429 ft | 242 kts | 348° |
| 2026-05-06 15:19 | 50.12256 | 20.22206 | 5283 ft | 231 kts | 333° |
| 2026-05-06 15:20 | 50.13476 | 20.20738 | 5096 ft | 218 kts | 302° |
| 2026-05-06 15:20 | 50.14008 | 20.18642 | 4967 ft | 203 kts | 274° |
| 2026-05-06 15:20 | 50.14019 | 20.16486 | 4790 ft | 197 kts | 263° |
| 2026-05-06 15:20 | 50.13847 | 20.14389 | 4556 ft | 194 kts | 259° |
| 2026-05-06 15:21 | 50.13602 | 20.12322 | 4308 ft | 194 kts | 257° |
| 2026-05-06 15:21 | 50.13312 | 20.10276 | 4106 ft | 193 kts | 256° |
| 2026-05-06 15:21 | 50.12996 | 20.08254 | 3924 ft | 192 kts | 255° |
| 2026-05-06 15:21 | 50.12659 | 20.06238 | 3765 ft | 192 kts | 253° |
| 2026-05-06 15:22 | 50.12317 | 20.04256 | 3636 ft | 185 kts | 253° |
| 2026-05-06 15:22 | 50.11983 | 20.02373 | 3455 ft | 176 kts | 252° |
| 2026-05-06 15:22 | 50.11664 | 20.00569 | 3296 ft | 168 kts | 251° |
| 2026-05-06 15:22 | 50.11363 | 19.98899 | 3181 ft | 156 kts | 250° |
| 2026-05-06 15:23 | 50.11068 | 19.97284 | 3045 ft | 155 kts | 252° |
| 2026-05-06 15:23 | 50.10774 | 19.95675 | 2955 ft | 154 kts | 252° |
| 2026-05-06 15:23 | 50.10478 | 19.94067 | 2928 ft | 154 kts | 251° |
| 2026-05-06 15:23 | 50.10188 | 19.92489 | 2773 ft | 148 kts | 251° |
| 2026-05-06 15:24 | 50.09898 | 19.90975 | 2439 ft | 145 kts | 250° |
| 2026-05-06 15:24 | 50.09583 | 19.89499 | 2052 ft | 145 kts | 244° |
| 2026-05-06 15:24 | 50.09224 | 19.88064 | 1857 ft | 139 kts | 245° |
| 2026-05-06 15:24 | 50.08913 | 19.86649 | 1629 ft | 139 kts | 253° |
| 2026-05-06 15:25 | 50.08694 | 19.85161 | 1446 ft | 146 kts | 257° |
| 2026-05-06 15:25 | 50.08491 | 19.83625 | 1278 ft | 145 kts | 256° |
| 2026-05-06 15:25 | 50.08267 | 19.82085 | 1113 ft | 148 kts | 255° |
| 2026-05-06 15:25 | 50.08057 | 19.80556 | 920 ft | 138 kts | 258° |
| 2026-05-06 15:26 | 50.07869 | 19.79159 | 804 ft | 121 kts | 258° |
| 2026-05-06 15:26 | 50.07729 | 19.78156 | 801 ft | 66 kts | 258° |
| 2026-05-06 15:26 | 50.07651 | 19.77605 | 802 ft | 43 kts | 258° |
| 2026-05-06 15:26 | 50.07603 | 19.77254 | 804 ft | 31 kts | 257° |
| 2026-05-06 15:27 | 50.07558 | 19.76939 | 805 ft | 21 kts | 257° |
| 2026-05-06 15:27 | 50.07463 | 19.76849 | 803 ft | 18 kts | 168° |
| 2026-05-06 15:27 | 50.07335 | 19.76897 | 802 ft | 20 kts | 154° |
| 2026-05-06 15:27 | 50.07322 | 19.77089 | 802 ft | 20 kts | 76° |
| 2026-05-06 15:28 | 50.07357 | 19.77308 | 802 ft | 22 kts | 76° |
| 2026-05-06 15:28 | 50.07391 | 19.77545 | 802 ft | 23 kts | 79° |
| 2026-05-06 15:28 | 50.07424 | 19.77800 | 802 ft | 25 kts | 79° |
| 2026-05-06 15:28 | 50.07462 | 19.78071 | 802 ft | 26 kts | 77° |
| 2026-05-06 15:29 | 50.07504 | 19.78358 | 802 ft | 28 kts | 77° |
| 2026-05-06 15:29 | 50.07544 | 19.78653 | 802 ft | 28 kts | 78° |
| 2026-05-06 15:29 | 50.07587 | 19.78961 | 802 ft | 30 kts | 78° |
| 2026-05-06 15:29 | 50.07628 | 19.79258 | 802 ft | 28 kts | 78° |
| 2026-05-06 15:30 | 50.07670 | 19.79563 | 802 ft | 30 kts | 78° |
| 2026-05-06 15:30 | 50.07703 | 19.79810 | 802 ft | 17 kts | 86° |
| 2026-05-06 15:30 | 50.07612 | 19.79899 | 802 ft | 18 kts | 168° |
| 2026-05-06 15:30 | 50.07486 | 19.79941 | 802 ft | 20 kts | 168° |
| 2026-05-06 15:31 | 50.07394 | 19.79976 | 802 ft | 9 kts | 165° |
| 2026-05-06 15:31 | 50.07339 | 19.79997 | 802 ft | 4 kts | 167° |
| 2026-05-06 15:31 | 50.07320 | 19.80003 | 802 ft | 2 kts | 168° |
| 2026-05-06 15:32 | 50.07310 | 19.80006 | 802 ft | 0 kts | 168° |